Flight Track Log - Related Links

Times and Time Zones

All times are in EDT time to prevent confusion due to time zone crossing. See the SKQ401 flight status page for this flight to view local times or setup timezone preferences in your user account.

Time Position Orientation Groundspeed Altitude Reporting Facility
EDT Latitude Longitude Course Direction KTS MPH feet Rate Location/Type
Sat 08:45:14 AM 33.5506 -86.7881 359° North 133 153 1,200  Level Atlanta Center
Sat 08:46:20 AM 33.5861 -86.7892 57° Northeast 136 157 2,000 661 Climbing Atlanta Center
Sat 08:47:21 AM 33.6100 -86.7453 55° Northeast 156 180 2,600 716 Climbing Atlanta Center
Sat 08:48:34 AM 33.6406 -86.6936 59° Northeast 151 174 3,600 767 Climbing Atlanta Center
Sat 08:49:34 AM 33.6600 -86.6544 52° Northeast 143 165 4,300 645 Climbing Atlanta Center
Sat 08:50:35 AM 33.6858 -86.6153 57° Northeast 143 165 4,900 590 Climbing Atlanta Center
Sat 08:51:36 AM 33.7075 -86.5758 56° Northeast 146 168 5,500 595 Climbing Atlanta Center
Sat 08:52:36 AM 33.7292 -86.5367 58° Northeast 149 171 6,100 532 Climbing Atlanta Center
Sat 08:53:40 AM 33.7575 -86.4825 54° Northeast 150 173 6,600 532 Climbing Atlanta Center
Sat 08:54:40 AM 33.7811 -86.4431 58° Northeast 171 197 7,200 650 Climbing Atlanta Center
Sat 08:55:40 AM 33.8050 -86.3964 57° Northeast 171 197 7,900 650 Climbing Atlanta Center
Sat 08:56:40 AM 33.8289 -86.3519 53° Northeast 164 189 8,500 550 Climbing Atlanta Center
Sat 08:57:40 AM 33.8592 -86.3028 56° Northeast 164 189 9,000 250 Climbing Atlanta Center
Sat 08:58:40 AM 33.8869 -86.2533 59° Northeast 170 196 9,000  Level Atlanta Center
Sat 08:59:40 AM 33.9175 -86.1917 54° Northeast 177 204 9,000  Level Atlanta Center
Sat 09:00:40 AM 33.9497 -86.1372 58° Northeast 188 216 9,000  Level Atlanta Center
Sat 09:01:40 AM 33.9778 -86.0828 61° Northeast 188 216 9,000  Level Atlanta Center
Sat 09:02:40 AM 34.0036 -86.0258 66° East 188 216 9,000  Level Atlanta Center
Sat 09:03:40 AM 34.0256 -85.9661 61° Northeast 183 211 9,000  Level Atlanta Center
Sat 09:04:40 AM 34.0514 -85.9092 61° Northeast 183 211 9,000  Level Atlanta Center
Sat 09:05:40 AM 34.0731 -85.8619 62° Northeast 183 211 9,000  Level Atlanta Center
Sat 09:06:40 AM 34.1011 -85.7975 68° East 183 211 9,000  Level Atlanta Center
Sat 09:07:40 AM 34.1206 -85.7400 59° Northeast 188 216 9,000  Level Atlanta Center
Sat 09:08:40 AM 34.1486 -85.6828 68° East 188 216 9,000  Level Atlanta Center
Sat 09:09:40 AM 34.1681 -85.6256 62° Northeast 188 216 9,000  Level Atlanta Center
Sat 09:10:40 AM 34.1939 -85.5658 61° Northeast 195 224 9,000  Level Atlanta Center
Sat 09:11:40 AM 34.2217 -85.5058 66° East 195 224 9,000  Level Atlanta Center
Sat 09:12:40 AM 34.2456 -85.4411 62° Northeast 195 224 9,000  Level Atlanta Center
Sat 09:13:40 AM 34.2711 -85.3836 62° Northeast 195 224 9,000  Level Atlanta Center
Sat 09:14:40 AM 34.2969 -85.3236 66° East 195 224 9,000  Level Atlanta Center
Sat 09:15:40 AM 34.3183 -85.2661 64° Northeast 195 224 9,000  Level Atlanta Center
Sat 09:16:40 AM 34.3417 -85.2086 62° Northeast 195 224 9,000  Level Atlanta Center
Sat 09:17:40 AM 34.3675 -85.1486 64° Northeast 195 224 9,000  Level Atlanta Center
Sat 09:18:40 AM 34.3908 -85.0911 65° Northeast 195 224 9,000  Level Atlanta Center
Sat 09:19:40 AM 34.4144 -85.0308 62° Northeast 195 224 9,000  Level Atlanta Center
Sat 09:20:40 AM 34.4378 -84.9783 65° Northeast 195 224 9,000  Level Atlanta Center
Sat 09:21:40 AM 34.4611 -84.9181 65° Northeast 195 224 9,000  Level Atlanta Center
Sat 09:22:40 AM 34.4844 -84.8578 63° Northeast 195 224 9,000  Level Atlanta Center
Sat 09:23:40 AM 34.5100 -84.7975 65° Northeast 195 224 9,000  Level Atlanta Center
Sat 09:24:40 AM 34.5333 -84.7372 64° Northeast 195 224 9,000  Level Atlanta Center
Sat 09:25:40 AM 34.5586 -84.6744 64° Northeast 200 230 9,000  Level Atlanta Center
Sat 09:26:40 AM 34.5861 -84.6064 65° Northeast 194 223 9,000  Level Atlanta Center
Sat 09:27:40 AM 34.6092 -84.5461 63° Northeast 194 223 9,000  Level Atlanta Center
Sat 09:28:40 AM 34.6344 -84.4856 66° East 194 223 9,000  Level Atlanta Center
Sat 09:29:40 AM 34.6578 -84.4225 63° Northeast 199 229 9,000  Level Atlanta Center
Sat 09:30:40 AM 34.6831 -84.3622 63° Northeast 194 223 9,000  Level Atlanta Center
Sat 09:31:40 AM 34.7081 -84.3017 66° East 194 223 9,000  Level Atlanta Center
Sat 09:32:40 AM 34.7311 -84.2383 61° Northeast 194 223 9,000  Level Atlanta Center
Sat 09:33:40 AM 34.7583 -84.1778 65° Northeast 194 223 9,000  Level Atlanta Center
Sat 09:34:40 AM 34.7814 -84.1172 64° Northeast 194 223 9,000  Level Atlanta Center
Sat 09:35:40 AM 34.8064 -84.0539 66° East 194 223 9,000  Level Atlanta Center
Sat 09:36:40 AM 34.8272 -83.9958 60° Northeast 194 223 9,000  Level Atlanta Center
Sat 09:37:40 AM 34.8544 -83.9375 70° East 194 223 9,000  Level Atlanta Center
Sat 09:38:40 AM 34.8731 -83.8767 63° Northeast 201 231 9,000  Level Atlanta Center
Sat 09:39:40 AM 34.8981 -83.8158 63° Northeast 201 231 9,000  Level Atlanta Center
Sat 09:40:40 AM 34.9250 -83.7500 63° Northeast 201 231 9,000  Level Atlanta Center
Sat 09:41:40 AM 34.9500 -83.6892 66° East 195 224 9,000  Level Atlanta Center
Sat 09:42:40 AM 34.9728 -83.6281 62° Northeast 195 224 9,000  Level Atlanta Center
Sat 09:43:40 AM 35.0017 -83.5619 69° East 200 230 9,000  Level Atlanta Center
Sat 09:44:40 AM 35.0203 -83.5011 67° East 207 238 9,000  Level Atlanta Center
Sat 09:45:40 AM 35.0428 -83.4375 65° Northeast 207 238 9,000  Level Atlanta Center
Sat 09:46:40 AM 35.0675 -83.3739 63° Northeast 207 238 9,000  Level Atlanta Center
Sat 09:47:40 AM 35.0944 -83.3103 65° Northeast 202 232 9,000  Level Atlanta Center
Sat 09:48:40 AM 35.1169 -83.2517 66° East 197 227 9,000  Level Atlanta Center
Sat 09:49:40 AM 35.1394 -83.1906 66° East 191 220 9,000  Level Atlanta Center
Sat 09:50:40 AM 35.1619 -83.1292 66° East 199 229 9,000  Level Atlanta Center
Sat 09:51:40 AM 35.1844 -83.0681 61° Northeast 194 223 9,000  Level Atlanta Center
Sat 09:52:40 AM 35.2131 -83.0042 75° East 194 223 9,000  Level Atlanta Center
Sat 09:53:40 AM 35.2272 -82.9378 75° East 194 223 9,000  Level Atlanta Center
Sat 09:54:40 AM 35.2392 -82.8817 72° East 200 230 9,000  Level Atlanta Center
Sat 09:55:40 AM 35.2572 -82.8153 74° East 195 224 9,000  Level Atlanta Center
Sat 09:56:40 AM 35.2733 -82.7464 73° East 201 231 9,000  Level Atlanta Center
Sat 09:57:40 AM 35.2914 -82.6722 74° East 207 238 9,000  Level Atlanta Center
Sat 09:58:40 AM 35.3053 -82.6111 68° East 207 238 9,000  Level Atlanta Center
Sat 09:59:40 AM 35.3294 -82.5367 72° East 207 238 9,000  Level Atlanta Center
Sat 10:00:40 AM 35.3472 -82.4678 70° East 226 260 9,000  Level Atlanta Center
Sat 10:01:40 AM 35.3672 -82.4011 74° East 216 249 9,000  Level Atlanta Center
Sat 10:02:40 AM 35.3811 -82.3397 71° East 210 242 9,000  Level Atlanta Center
Sat 10:03:40 AM 35.4008 -82.2706 69° East 210 242 9,000  Level Atlanta Center
Sat 10:04:40 AM 35.4208 -82.2064 68° East 205 236 9,000  Level Atlanta Center
Sat 10:05:40 AM 35.4428 -82.1397 73° East 205 236 9,000  Level Atlanta Center
Sat 10:06:40 AM 35.4606 -82.0703 72° East 205 236 9,000  Level Atlanta Center
Sat 10:07:40 AM 35.4781 -82.0036 68° East 205 236 9,000  Level Atlanta Center
Sat 10:08:40 AM 35.5019 -81.9317 72° East 205 236 9,000 -50 Level Atlanta Center
Sat 10:09:40 AM 35.5197 -81.8647 69° East 205 236 8,900 -50 Descending Atlanta Center
Sat 10:10:40 AM 35.5414 -81.7953 70° East 205 236 8,900  Level Atlanta Center
Sat 10:11:40 AM 35.5608 -81.7283 69° East 207 238 8,900  Level Atlanta Center
Sat 10:12:40 AM 35.5806 -81.6642 65° Northeast 207 238 8,900 50 Level Atlanta Center
Sat 10:13:40 AM 35.6044 -81.6019 70° East 207 238 9,000  Climbing Atlanta Center
Sat 10:14:40 AM 35.6239 -81.5350 66° East 207 238 8,900  Descending Atlanta Center
Sat 10:15:40 AM 35.6475 -81.4703 67° East 207 238 9,000 50 Climbing Atlanta Center
Sat 10:16:40 AM 35.6672 -81.4136 68° East 207 238 9,000  Level Atlanta Center
Sat 10:17:40 AM 35.6889 -81.3489 69° East 202 232 9,000  Level Atlanta Center
Sat 10:18:40 AM 35.7103 -81.2817 68° East 207 238 9,000  Level Atlanta Center
Sat 10:19:40 AM 35.7336 -81.2094 72° East 207 238 9,000  Level Atlanta Center
Sat 10:20:40 AM 35.7508 -81.1422 77° East 207 238 9,000  Level Atlanta Center
Sat 10:21:40 AM 35.7639 -81.0728 79° East 207 238 9,000  Level Atlanta Center
Sat 10:22:40 AM 35.7747 -81.0056 77° East 202 232 9,000  Level Atlanta Center
Sat 10:23:40 AM 35.7875 -80.9361 77° East 202 232 9,000  Level Atlanta Center
Sat 10:24:40 AM 35.8003 -80.8664 78° East 202 232 9,000  Level Atlanta Center
Sat 10:25:40 AM 35.8131 -80.7942 75° East 202 232 9,000  Level Atlanta Center
Sat 10:26:40 AM 35.8261 -80.7322 77° East 202 232 9,000  Level Atlanta Center
Sat 10:27:40 AM 35.8389 -80.6653 78° East 202 232 9,000  Level Atlanta Center
Sat 10:28:40 AM 35.8514 -80.5928 78° East 202 232 9,000  Level Atlanta Center
Sat 10:29:40 AM 35.8639 -80.5231 79° East 202 232 9,000  Level Atlanta Center
Sat 10:30:40 AM 35.8744 -80.4536 78° East 202 232 9,000  Level Atlanta Center
Sat 10:31:40 AM 35.8869 -80.3811 75° East 202 232 9,000  Level Atlanta Center
Sat 10:32:40 AM 35.9036 -80.3061 79° East 202 232 9,000  Level Atlanta Center
Sat 10:33:40 AM 35.9158 -80.2311 78° East 212 244 9,000  Level Atlanta Center
Sat 10:34:40 AM 35.9281 -80.1614 80° East 206 237 9,000  Level Atlanta Center
Sat 10:42:32 AM 36.0010 -79.6625 75° East  Level FlightAware Approximate
Sat 10:43:32 AM 36.0150 -79.5995 75° East  Level FlightAware Approximate
Sat 10:44:32 AM 36.0289 -79.5366 85° East  Level FlightAware Approximate
Sat 10:45:32 AM 36.0333 -79.4720 351° North  Level FlightAware Approximate
Sat 10:46:32 AM 36.0855 -79.4819 171° South  Level Estimated
Sat 10:47:32 AM 36.0333 -79.4720 351° North  Level Estimated
Sat 10:48:32 AM 36.0855 -79.4819 167° South  Level Estimated
Sat 10:49:32 AM 36.0333 -79.4667 336° Northwest  Level FlightAware Approximate
Sat 10:50:32 AM 36.0817 -79.4928 156° South  Level Estimated
Sat 10:51:32 AM 36.0333 -79.4667 336° Northwest  Level FlightAware Approximate
Sat 10:52:32 AM 36.0817 -79.4928 156° South  Level Estimated
Sat 10:53:32 AM 36.0333 -79.4667 156° South  Level FlightAware Approximate

Login

Don't have an account? Register now (free) for customized features, flight alerts, and more!